Time;durP1;ratioP1;P1;durP2;ratioP2;P2;SDS_P1;SDS_P2;PMS_P1;PMS_P2;Temp;Humidity;BMP_temperature;BMP_pressure;BME280_temperature;BME280_humidity;BME280_pressure;Samples;Min_cycle;Max_cycle;Signal;HPM_P1;HPM_P2
2021/06/20 00:01:18;;;;;;;9.20;5.55;;;;;;;20.43;57.98;99498.85;1764650;79;20909;-67
2021/06/20 00:03:45;;;;;;;9.00;5.67;;;;;;;20.40;58.15;99492.51;1766723;79;20992;-67
2021/06/20 00:06:32;;;;;;;6.65;5.15;;;;;;;20.34;58.27;99494.73;1763519;79;21326;-67
2021/06/20 00:09:00;;;;;;;9.70;5.30;;;;;;;20.35;58.50;99492.42;1774982;79;20948;-67
2021/06/20 00:11:28;;;;;;;9.10;5.62;;;;;;;20.43;58.76;99488.25;1768046;79;21514;-67
2021/06/20 00:13:56;;;;;;;7.05;4.50;;;;;;;20.53;58.91;99487.29;1759350;80;21443;-66
2021/06/20 00:16:23;;;;;;;11.40;5.05;;;;;;;20.63;58.88;99484.61;1754908;80;20905;-67
2021/06/20 00:18:51;;;;;;;8.33;5.40;;;;;;;20.60;58.84;99489.38;1756769;80;20944;-66
2021/06/20 00:21:21;;;;;;;8.60;5.62;;;;;;;20.55;58.86;99492.44;1763339;80;21009;-67
2021/06/20 00:23:48;;;;;;;12.07;5.83;;;;;;;20.48;58.99;99484.69;1768445;80;21079;-67
2021/06/20 00:26:16;;;;;;;10.15;5.58;;;;;;;20.43;59.13;99481.61;1755901;80;20952;-66
2021/06/20 00:28:43;;;;;;;10.70;5.37;;;;;;;20.38;59.26;99486.00;1756730;80;20937;-67
2021/06/20 00:31:11;;;;;;;7.30;5.53;;;;;;;20.35;59.31;99482.31;1758177;80;21587;-66
2021/06/20 00:33:40;;;;;;;8.25;5.80;;;;;;;20.33;59.47;99481.14;1756910;80;21592;-66
2021/06/20 00:36:08;;;;;;;10.48;5.80;;;;;;;20.29;59.46;99481.06;1760415;80;21033;-67
2021/06/20 00:38:35;;;;;;;11.65;5.70;;;;;;;20.25;59.55;99478.36;1760668;80;21443;-67
2021/06/20 00:41:03;;;;;;;6.92;5.55;;;;;;;20.21;59.72;99482.25;1770869;80;20921;-67
2021/06/20 00:43:29;;;;;;;7.30;4.95;;;;;;;20.18;59.82;99479.88;1764796;80;20941;-66
2021/06/20 00:45:56;;;;;;;6.30;5.08;;;;;;;20.15;59.95;99485.47;1761536;80;20932;-66
2021/06/20 00:48:23;;;;;;;7.45;5.50;;;;;;;20.08;59.99;99477.70;1753696;80;21886;-67
2021/06/20 00:50:50;;;;;;;10.20;5.83;;;;;;;20.03;60.17;99478.63;1759084;80;20932;-66
2021/06/20 00:53:16;;;;;;;7.67;6.30;;;;;;;19.98;60.23;99478.20;1766390;80;20929;-67
2021/06/20 00:55:44;;;;;;;13.60;6.92;;;;;;;19.95;60.33;99479.81;1764526;80;20897;-67
2021/06/20 00:58:10;;;;;;;8.93;5.62;;;;;;;19.95;60.50;99479.81;1760422;80;20908;-67
2021/06/20 01:00:37;;;;;;;9.23;5.55;;;;;;;19.93;60.60;99467.19;1760068;80;21039;-67
2021/06/20 01:03:06;;;;;;;9.65;5.40;;;;;;;19.94;60.81;99468.84;1760417;80;20897;-67
2021/06/20 01:05:33;;;;;;;8.90;5.28;;;;;;;19.95;60.82;99465.24;1761536;80;21468;-67
2021/06/20 01:08:00;;;;;;;8.63;5.62;;;;;;;19.96;60.88;99461.60;1758393;80;20964;-67
2021/06/20 01:10:34;;;;;;;11.28;6.92;;;;;;;19.96;60.97;99458.95;1760237;80;20901;-66
2021/06/20 01:12:58;;;;;;;11.03;6.10;;;;;;;19.96;61.07;99465.08;1770982;79;21049;-67
2021/06/20 01:15:50;;;;;;;7.42;6.08;;;;;;;19.98;61.17;99463.63;1763271;79;20870;-67
2021/06/20 01:18:17;;;;;;;8.63;5.55;;;;;;;19.98;61.28;99463.63;1761400;79;20977;-67
2021/06/20 01:20:44;;;;;;;7.55;6.62;;;;;;;19.97;61.35;99451.34;1773763;79;21471;-67
2021/06/20 01:23:11;;;;;;;10.95;6.40;;;;;;;19.97;61.44;99451.34;1767079;79;20964;-67
2021/06/20 01:25:41;;;;;;;10.60;6.50;;;;;;;19.97;61.54;99448.69;1774971;78;20972;-66
2021/06/20 01:28:10;;;;;;;10.43;6.35;;;;;;;19.98;61.65;99450.38;1768836;79;20921;-67
2021/06/20 01:30:45;;;;;;;8.68;6.33;;;;;;;19.97;61.71;99447.36;1773863;79;21420;-67
2021/06/20 01:33:13;;;;;;;7.05;6.30;;;;;;;19.94;61.75;99450.30;1771767;78;20882;-66
2021/06/20 01:35:40;;;;;;;11.10;6.45;;;;;;;19.88;61.81;99445.93;1770863;79;20892;-67
2021/06/20 01:38:10;;;;;;;8.33;5.85;;;;;;;19.84;61.92;99443.19;1772179;79;21047;-67
2021/06/20 01:40:36;;;;;;;7.58;5.90;;;;;;;19.82;62.04;99449.11;1765817;79;21411;-67
2021/06/20 01:43:03;;;;;;;8.15;5.80;;;;;;;19.80;62.14;99447.11;1768041;79;20921;-67
2021/06/20 01:45:32;;;;;;;7.75;6.30;;;;;;;19.80;62.26;99443.13;1762265;79;37847;-67
2021/06/20 01:48:00;;;;;;;8.98;6.25;;;;;;;19.80;62.33;99448.89;1767429;79;20908;-66
2021/06/20 01:50:28;;;;;;;6.78;6.08;;;;;;;19.79;62.42;99434.81;1767271;79;21447;-66
2021/06/20 01:53:13;;;;;;;7.17;6.45;;;;;;;19.78;62.50;99435.80;1770792;79;21597;-67
2021/06/20 01:55:44;;;;;;;12.30;6.55;;;;;;;19.78;62.58;99425.20;1771875;79;20904;-67
2021/06/20 01:58:13;;;;;;;11.28;6.40;;;;;;;19.76;62.67;99429.80;1765858;79;21456;-67
2021/06/20 02:00:43;;;;;;;9.68;6.25;;;;;;;19.75;62.77;99430.78;1773306;79;20882;-66
2021/06/20 02:03:13;;;;;;;6.65;5.97;;;;;;;19.73;62.84;99426.59;1765128;79;21933;-67
2021/06/20 02:05:43;;;;;;;7.83;6.05;;;;;;;19.72;62.96;99423.11;1774800;79;21468;-67
2021/06/20 02:08:11;;;;;;;11.30;6.28;;;;;;;19.71;63.04;99424.07;1773616;79;20914;-66
2021/06/20 02:10:40;;;;;;;9.08;6.42;;;;;;;19.74;63.07;99428.26;1747595;79;21471;-67
2021/06/20 02:13:07;;;;;;;9.43;6.75;;;;;;;19.75;63.18;99422.84;1763458;79;21076;-67
2021/06/20 02:15:34;;;;;;;9.55;5.95;;;;;;;19.76;63.15;99423.17;1759930;80;21456;-67
2021/06/20 02:18:01;;;;;;;10.00;6.80;;;;;;;19.77;63.34;99422.68;1757259;80;20920;-66
2021/06/20 02:20:27;;;;;;;7.22;6.42;;;;;;;19.78;63.40;99421.23;1759562;80;20886;-67
2021/06/20 02:22:54;;;;;;;13.18;6.83;;;;;;;19.81;63.44;99424.92;1756344;80;20908;-67
2021/06/20 02:25:22;;;;;;;11.10;6.90;;;;;;;19.82;63.54;99419.13;1755505;80;20936;-67
2021/06/20 02:27:53;;;;;;;8.43;6.65;;;;;;;19.85;63.63;99421.01;1760966;80;21077;-66
2021/06/20 02:30:21;;;;;;;8.33;6.60;;;;;;;19.90;63.62;99418.78;1757963;80;20909;-67
2021/06/20 02:32:49;;;;;;;9.00;6.15;;;;;;;19.95;63.71;99417.55;1754979;80;21487;-66
2021/06/20 02:35:17;;;;;;;7.70;6.53;;;;;;;19.99;63.70;99424.22;1755400;80;20905;-66
2021/06/20 02:37:45;;;;;;;10.72;6.75;;;;;;;20.02;63.79;99423.94;1760244;80;20916;-67
2021/06/20 02:40:13;;;;;;;7.10;6.40;;;;;;;20.06;63.85;99422.70;1763140;80;21097;-66
2021/06/20 02:42:41;;;;;;;9.95;5.90;;;;;;;20.13;63.93;99421.14;1766299;80;21448;-66
2021/06/20 02:45:12;;;;;;;9.90;6.03;;;;;;;20.35;64.18;99422.16;1756653;80;21560;-67
2021/06/20 02:47:39;;;;;;;8.15;6.12;;;;;;;20.73;64.14;99423.09;1760171;80;20932;-66
2021/06/20 02:50:08;;;;;;;7.08;5.80;;;;;;;21.01;63.95;99416.49;1757735;80;20968;-67
2021/06/20 02:52:34;;;;;;;8.43;6.10;;;;;;;21.47;64.05;99419.20;1756447;80;21628;-67
2021/06/20 02:55:02;;;;;;;6.60;6.00;;;;;;;22.00;63.88;99409.91;1762420;80;20900;-67
2021/06/20 02:57:29;;;;;;;;;;;;;;;22.54;63.62;99417.31;1757599;80;20913;-67
2021/06/20 03:00:00;;;;;;;10.15;6.20;;;;;;;23.04;63.12;99413.63;1757239;80;20119;-67
2021/06/20 03:02:26;;;;;;;10.68;5.53;;;;;;;23.51;62.96;99407.78;1760185;80;20925;-67
2021/06/20 03:04:54;;;;;;;9.10;5.37;;;;;;;23.97;62.66;99408.20;1764467;80;21874;-67
2021/06/20 03:07:21;;;;;;;10.93;5.20;;;;;;;24.35;62.18;99403.51;1758579;80;21043;-67
2021/06/20 03:09:49;;;;;;;7.47;5.22;;;;;;;24.72;61.94;99398.63;1759576;80;20928;-67
2021/06/20 03:12:17;;;;;;;10.28;5.47;;;;;;;25.07;61.42;99408.03;1764590;80;20901;-68
2021/06/20 03:14:44;;;;;;;8.83;5.58;;;;;;;25.44;61.23;99398.52;1757802;80;21432;-67
2021/06/20 03:17:13;;;;;;;7.60;5.10;;;;;;;25.87;60.70;99398.91;1758693;80;21424;-68
2021/06/20 03:19:42;;;;;;;8.18;5.78;;;;;;;26.33;60.47;99401.55;1756895;81;20892;-68
2021/06/20 03:22:08;;;;;;;7.67;5.08;;;;;;;26.79;59.97;99393.38;1759125;80;20900;-67
2021/06/20 03:24:38;;;;;;;12.03;4.92;;;;;;;27.26;59.44;99392.16;1753252;80;20975;-68
2021/06/20 03:27:06;;;;;;;5.90;4.95;;;;;;;27.71;59.05;99387.48;1759941;80;20893;-68
2021/06/20 03:29:32;;;;;;;9.28;4.87;;;;;;;28.19;58.38;99392.27;1759542;80;21030;-68
2021/06/20 03:31:59;;;;;;;12.25;4.95;;;;;;;28.52;57.83;99387.17;1758091;80;20932;-68
2021/06/20 03:34:25;;;;;;;;;;;;;;;28.86;57.00;99382.81;1764707;80;20882;-68
2021/06/20 03:36:52;;;;;;;6.90;4.25;;;;;;;29.10;56.17;99385.03;1761682;80;20119;-68
2021/06/20 03:39:19;;;;;;;10.95;4.30;;;;;;;29.39;55.95;99380.36;1762600;80;20845;-68
2021/06/20 03:41:45;;;;;;;7.45;4.20;;;;;;;29.65;55.51;99378.27;1757283;80;21887;-68
2021/06/20 03:44:12;;;;;;;11.60;4.50;;;;;;;29.93;55.09;99376.73;1756512;80;21432;-68
2021/06/20 03:46:38;;;;;;;4.90;4.12;;;;;;;30.19;54.51;99377.77;1758104;80;20936;-68
2021/06/20 03:49:05;;;;;;;6.95;4.00;;;;;;;30.60;54.17;99374.02;1757758;80;20866;-68
2021/06/20 03:51:32;;;;;;;9.65;4.25;;;;;;;30.96;53.27;99374.34;1758136;80;20897;-68
2021/06/20 03:53:59;;;;;;;9.08;4.12;;;;;;;31.13;52.61;99377.91;1753113;80;21276;-67
2021/06/20 03:56:26;;;;;;;5.30;4.05;;;;;;;31.40;52.19;99371.90;1757287;80;20850;-68
2021/06/20 03:58:53;;;;;;;7.65;3.90;;;;;;;31.55;51.51;99375.64;1757422;80;20877;-69
2021/06/20 04:01:20;;;;;;;6.03;3.92;;;;;;;31.81;51.14;99379.48;1761777;80;20921;-69
2021/06/20 04:03:46;;;;;;;5.85;3.55;;;;;;;32.06;50.49;99378.70;1760673;80;21427;-68
2021/06/20 04:06:13;;;;;;;7.58;4.40;;;;;;;32.40;50.19;99380.05;1759296;80;21045;-69
2021/06/20 04:08:39;;;;;;;7.50;3.83;;;;;;;32.73;49.78;99383.79;1760755;81;20951;-68
2021/06/20 04:11:07;;;;;;;7.22;4.35;;;;;;;33.04;48.78;99380.66;1762943;80;20857;-69
2021/06/20 04:13:34;;;;;;;9.83;3.87;;;;;;;33.12;48.22;99383.05;1764368;79;20940;-68
2021/06/20 04:16:00;;;;;;;5.60;3.65;;;;;;;33.25;47.74;99381.24;1770149;79;20931;-69
2021/06/20 04:18:27;;;;;;;7.45;4.22;;;;;;;33.28;47.09;99374.02;1769151;79;21250;-68
2021/06/20 04:20:53;;;;;;;7.87;3.90;;;;;;;33.29;46.86;99377.02;1776161;79;20900;-69
2021/06/20 04:23:20;;;;;;;7.58;3.98;;;;;;;33.48;46.41;99378.61;1766219;79;21941;-69
2021/06/20 04:25:46;;;;;;;6.03;3.83;;;;;;;33.78;46.03;99384.03;1769664;79;20893;-69
2021/06/20 04:28:16;;;;;;;8.20;3.52;;;;;;;33.95;45.40;99378.77;1761354;78;20967;-68
2021/06/20 04:30:43;;;;;;;9.03;3.58;;;;;;;34.15;45.10;99384.41;1774865;79;21113;-69
2021/06/20 04:33:09;;;;;;;7.08;3.67;;;;;;;34.40;44.89;99386.35;1772381;79;21007;-69
2021/06/20 04:35:36;;;;;;;8.48;3.75;;;;;;;34.70;43.84;99386.75;1765397;79;20988;-68
2021/06/20 04:38:02;;;;;;;5.75;3.37;;;;;;;34.86;43.93;99390.08;1772152;79;20920;-69
2021/06/20 04:40:29;;;;;;;7.60;3.40;;;;;;;35.26;43.32;99393.88;1772425;79;20975;-69
2021/06/20 04:43:05;;;;;;;4.17;3.22;;;;;;;35.33;42.67;99389.97;1768161;79;21023;-69
2021/06/20 04:45:27;;;;;;;6.85;3.40;;;;;;;35.59;42.41;99401.32;1778192;79;20932;-69
2021/06/20 04:47:54;;;;;;;6.55;3.62;;;;;;;35.75;41.96;99405.96;1778651;79;21868;-67
2021/06/20 04:50:21;;;;;;;15.55;4.28;;;;;;;35.98;41.76;99407.70;1772141;79;20892;-67
2021/06/20 04:52:47;;;;;;;10.03;3.87;;;;;;;36.29;41.07;99407.67;1777245;79;20948;-67
2021/06/20 04:55:15;;;;;;;7.55;3.52;;;;;;;36.44;40.62;99419.33;1775487;79;21047;-67
2021/06/20 04:57:42;;;;;;;6.60;3.08;;;;;;;36.62;40.37;99418.80;1767300;79;21546;-67
2021/06/20 05:00:11;;;;;;;5.35;3.60;;;;;;;36.73;39.76;99420.03;1769883;79;20912;-67
2021/06/20 05:02:38;;;;;;;7.62;3.67;;;;;;;36.70;39.09;99425.98;1764901;79;20943;-67
2021/06/20 05:05:06;;;;;;;8.63;3.50;;;;;;;36.59;39.01;99429.63;1769203;79;20901;-67
2021/06/20 05:07:33;;;;;;;6.62;3.33;;;;;;;36.57;38.50;99431.77;1771062;79;21132;-67
2021/06/20 05:10:00;;;;;;;6.25;3.45;;;;;;;36.55;38.25;99428.47;1766573;79;20960;-67
2021/06/20 05:12:27;;;;;;;8.85;3.50;;;;;;;36.78;38.12;99434.80;1769562;79;20948;-67
2021/06/20 05:14:53;;;;;;;13.00;3.00;;;;;;;37.06;37.83;99437.37;1776510;79;20911;-67
2021/06/20 05:17:20;;;;;;;6.20;3.35;;;;;;;37.09;37.25;99450.47;1770482;79;21495;-67
2021/06/20 05:19:47;;;;;;;6.10;3.22;;;;;;;37.16;37.25;99448.36;1780588;79;21033;-67
2021/06/20 05:22:14;;;;;;;6.05;3.10;;;;;;;37.23;36.56;99448.73;1773312;79;20932;-67
2021/06/20 05:24:41;;;;;;;5.95;3.35;;;;;;;37.16;36.46;99442.09;1769695;79;20914;-67
2021/06/20 05:27:09;;;;;;;4.42;3.02;;;;;;;37.23;36.32;99444.65;1769918;79;20916;-67
2021/06/20 05:29:36;;;;;;;6.87;3.65;;;;;;;37.24;35.77;99440.84;1773042;79;20940;-67
2021/06/20 05:32:03;;;;;;;4.80;2.83;;;;;;;37.18;35.52;99438.05;1776696;79;20986;-67
2021/06/20 05:34:30;;;;;;;7.33;3.40;;;;;;;37.19;35.39;99438.87;1774361;79;20893;-68
2021/06/20 05:36:56;;;;;;;7.50;3.40;;;;;;;37.22;35.23;99434.81;1775881;79;20901;-67
2021/06/20 05:39:23;;;;;;;17.20;3.37;;;;;;;37.26;34.88;99441.41;1772801;79;20895;-67
2021/06/20 05:41:49;;;;;;;9.03;3.00;;;;;;;37.17;34.78;99443.22;1762464;79;20913;-67
2021/06/20 05:44:16;;;;;;;11.00;3.05;;;;;;;37.34;34.87;99451.86;1774554;79;23349;-67
2021/06/20 05:46:42;;;;;;;4.58;2.67;;;;;;;37.54;34.71;99452.10;1771655;79;21464;-67
2021/06/20 05:49:09;;;;;;;6.67;3.08;;;;;;;37.74;34.29;99450.67;1781964;79;21436;-67
2021/06/20 05:51:36;;;;;;;5.30;2.90;;;;;;;37.58;33.87;99453.22;1765540;79;21490;-68
2021/06/20 05:54:02;;;;;;;3.17;2.47;;;;;;;37.55;33.90;99442.02;1773111;79;20953;-67
2021/06/20 05:56:29;;;;;;;5.55;3.25;;;;;;;37.37;33.60;99440.45;1767471;79;21028;-68
2021/06/20 05:58:56;;;;;;;6.87;3.15;;;;;;;37.25;33.46;99447.41;1776701;79;20937;-68
2021/06/20 06:01:22;;;;;;;3.55;2.50;;;;;;;37.16;33.21;99436.11;1770868;79;21035;-68
2021/06/20 06:03:49;;;;;;;5.37;2.70;;;;;;;37.01;33.33;99442.74;1766947;79;20916;-68
2021/06/20 06:06:15;;;;;;;8.03;2.87;;;;;;;37.01;33.27;99444.10;1764919;79;20888;-68
2021/06/20 06:08:42;;;;;;;10.38;2.60;;;;;;;36.96;33.17;99442.64;1772982;79;21035;-68
2021/06/20 06:11:08;;;;;;;13.08;2.98;;;;;;;36.91;33.16;99442.56;1771154;79;20904;-68
2021/06/20 06:13:35;;;;;;;4.72;2.87;;;;;;;36.97;33.07;99438.83;1761079;79;20893;-68
2021/06/20 06:16:02;;;;;;;9.40;2.90;;;;;;;36.85;32.62;99436.78;1737508;81;21536;-68
2021/06/20 06:18:28;;;;;;;4.62;2.87;;;;;;;36.58;33.00;99440.23;1733729;81;20941;-68
2021/06/20 06:20:55;;;;;;;5.65;3.20;;;;;;;36.63;32.80;99440.28;1751019;80;21049;-68
2021/06/20 06:23:21;;;;;;;8.33;2.85;;;;;;;36.59;32.83;99442.41;1751200;80;21811;-68
2021/06/20 06:25:48;;;;;;;7.75;2.80;;;;;;;36.68;32.92;99444.44;1746965;80;21460;-68
2021/06/20 06:28:15;;;;;;;9.45;3.10;;;;;;;36.54;32.60;99445.87;1744600;80;21475;-68
2021/06/20 06:30:42;;;;;;;6.45;2.72;;;;;;;36.59;32.76;99452.75;1750577;80;20919;-68
2021/06/20 06:33:08;;;;;;;6.95;2.83;;;;;;;36.73;32.93;99443.16;1750088;80;21057;-68
2021/06/20 06:35:35;;;;;;;4.72;2.77;;;;;;;36.97;33.04;99441.55;1749853;80;20939;-68
2021/06/20 06:38:02;;;;;;;8.20;3.12;;;;;;;37.08;32.84;99442.00;1750904;80;20948;-68
2021/06/20 06:40:29;;;;;;;3.62;2.37;;;;;;;37.09;32.54;99436.04;1748951;80;20935;-68
2021/06/20 06:42:56;;;;;;;6.78;3.10;;;;;;;36.84;32.48;99443.30;1750973;80;20950;-68
2021/06/20 06:45:23;;;;;;;6.53;3.08;;;;;;;36.73;32.57;99443.16;1748558;80;21036;-68
2021/06/20 06:47:50;;;;;;;11.53;2.85;;;;;;;36.75;32.74;99441.56;1746823;80;20915;-67
2021/06/20 06:50:16;;;;;;;5.35;2.92;;;;;;;36.71;32.46;99440.40;1748545;80;20903;-68
2021/06/20 06:52:43;;;;;;;5.62;2.90;;;;;;;36.45;32.23;99444.63;1751592;80;20907;-68
2021/06/20 06:55:10;;;;;;;7.33;2.58;;;;;;;36.16;32.52;99435.22;1747581;80;20947;-68
2021/06/20 06:57:37;;;;;;;8.73;2.70;;;;;;;36.15;32.62;99443.06;1749962;80;21477;-67
2021/06/20 07:00:07;;;;;;;7.97;2.67;;;;;;;36.21;32.71;99440.70;1746627;80;21389;-68
2021/06/20 07:02:34;;;;;;;15.85;3.58;;;;;;;36.28;32.64;99441.92;1728247;81;20970;-68
2021/06/20 07:05:00;;;;;;;6.47;3.12;;;;;;;36.18;32.54;99434.95;1725463;80;21069;-68
2021/06/20 07:07:27;;;;;;;6.22;2.75;;;;;;;35.98;32.63;99434.05;1720747;81;21396;-67
2021/06/20 07:09:59;;;;;;;8.93;3.30;;;;;;;35.96;32.81;99438.90;1753001;80;21027;-68
2021/06/20 07:12:23;;;;;;;7.33;3.58;;;;;;;36.05;33.02;99440.19;1749170;81;20874;-68
2021/06/20 07:14:50;;;;;;;4.85;3.08;;;;;;;36.25;33.13;99440.52;1771239;78;20948;-69
2021/06/20 07:17:16;;;;;;;6.28;3.00;;;;;;;36.28;32.75;99438.66;1786416;78;20944;-68
2021/06/20 07:19:43;;;;;;;5.40;2.95;;;;;;;36.19;32.83;99444.23;1783050;78;20969;-67
2021/06/20 07:22:10;;;;;;;4.08;3.15;;;;;;;36.18;33.14;99434.41;1785102;78;21012;-66
2021/06/20 07:24:36;;;;;;;6.92;2.70;;;;;;;36.23;32.88;99433.67;1784991;79;20885;-66
2021/06/20 07:27:03;;;;;;;6.10;2.70;;;;;;;36.01;32.72;99430.84;1784505;79;20871;-66
2021/06/20 07:29:30;;;;;;;7.40;3.22;;;;;;;35.73;32.88;99440.67;1782181;79;21481;-67
2021/06/20 07:31:56;;;;;;;8.50;3.10;;;;;;;35.66;33.12;99437.84;1784776;78;20883;-65
2021/06/20 07:34:23;;;;;;;8.60;3.45;;;;;;;35.35;33.02;99439.41;1791890;79;21020;-66
2021/06/20 07:36:51;;;;;;;8.50;3.22;;;;;;;35.06;33.36;99436.36;1784858;78;20887;-65
2021/06/20 07:39:18;;;;;;;4.60;3.02;;;;;;;34.87;33.48;99435.14;1786539;78;20926;-66
2021/06/20 07:41:45;;;;;;;9.85;3.40;;;;;;;34.68;33.69;99437.70;1787219;79;20887;-66
2021/06/20 07:44:12;;;;;;;5.20;3.25;;;;;;;34.42;33.92;99432.17;1785506;78;20867;-66
2021/06/20 07:46:39;;;;;;;8.20;3.70;;;;;;;34.13;34.06;99425.80;1788503;78;21827;-66
2021/06/20 07:49:05;;;;;;;5.72;3.85;;;;;;;33.97;34.38;99419.95;1788369;78;20868;-65
2021/06/20 07:51:32;;;;;;;9.25;3.75;;;;;;;33.76;34.48;99412.39;1784194;78;21455;-66
2021/06/20 07:53:58;;;;;;;7.40;3.90;;;;;;;33.60;34.83;99417.39;1788085;78;20912;-67
2021/06/20 07:56:25;;;;;;;6.47;3.62;;;;;;;33.46;35.05;99405.08;1787025;78;20899;-67
2021/06/20 07:58:56;;;;;;;9.83;3.42;;;;;;;33.25;35.15;99406.95;1785398;78;21854;-67
2021/06/20 08:01:20;;;;;;;9.48;3.83;;;;;;;33.06;35.36;99405.60;1784359;78;20978;-67
2021/06/20 08:03:47;;;;;;;5.28;4.20;;;;;;;32.93;35.61;99403.02;1787212;78;20927;-67
2021/06/20 08:06:13;;;;;;;5.00;3.62;;;;;;;32.82;35.91;99403.77;1783302;78;20880;-68
2021/06/20 08:08:40;;;;;;;6.35;3.75;;;;;;;32.72;36.03;99394.84;1783619;78;21827;-67
2021/06/20 08:11:06;;;;;;;5.58;4.10;;;;;;;32.71;36.49;99398.08;1784873;78;21525;-67
2021/06/20 08:13:33;;;;;;;6.72;3.90;;;;;;;32.85;36.69;99408.72;1778869;78;20943;-67
2021/06/20 08:16:00;;;;;;;5.62;3.52;;;;;;;32.93;36.63;99403.02;1774340;78;20942;-70
2021/06/20 08:18:29;;;;;;;6.75;3.77;;;;;;;32.90;36.93;99398.88;1778895;78;20919;-67
2021/06/20 08:21:00;;;;;;;7.08;3.72;;;;;;;33.09;37.15;99398.91;1775616;78;20947;-68
2021/06/20 08:23:26;;;;;;;6.17;3.90;;;;;;;33.23;37.13;99400.92;1777943;78;21500;-67
2021/06/20 08:25:53;;;;;;;6.08;3.77;;;;;;;33.23;37.12;99394.98;1783191;78;20927;-67
2021/06/20 08:28:20;;;;;;;9.83;4.10;;;;;;;33.13;37.20;99389.28;1788355;78;20953;-67
2021/06/20 08:30:48;;;;;;;7.03;3.85;;;;;;;32.95;36.99;99384.70;1762209;80;21538;-67
2021/06/20 08:33:16;;;;;;;6.85;3.75;;;;;;;32.70;37.07;99380.19;1768939;79;20953;-67
2021/06/20 08:35:42;;;;;;;7.03;3.33;;;;;;;32.58;37.28;99379.30;1771463;79;21079;-67
2021/06/20 08:38:09;;;;;;;8.40;3.37;;;;;;;32.64;37.33;99377.04;1772204;79;20929;-67
2021/06/20 08:40:36;;;;;;;5.62;3.52;;;;;;;32.63;37.29;99378.60;1778982;78;20925;-67
2021/06/20 08:43:02;;;;;;;7.12;3.20;;;;;;;32.68;37.31;99368.77;1751179;80;20900;-67
2021/06/20 08:45:29;;;;;;;7.83;3.20;;;;;;;32.64;37.39;99370.28;1752380;80;20956;-67
2021/06/20 08:47:56;;;;;;;9.48;3.30;;;;;;;32.66;37.33;99362.78;1753161;80;21518;-67
2021/06/20 08:50:22;;;;;;;8.55;3.40;;;;;;;32.67;37.22;99368.48;1757162;80;20973;-67
2021/06/20 08:52:53;;;;;;;8.75;3.33;;;;;;;32.71;37.48;99368.34;1749784;80;20969;-67
2021/06/20 08:55:20;;;;;;;7.70;2.98;;;;;;;32.79;37.36;99355.56;1750115;80;20973;-68
2021/06/20 08:57:48;;;;;;;7.72;3.58;;;;;;;32.86;37.28;99345.51;1753934;80;20905;-68
2021/06/20 09:00:18;;;;;;;7.78;3.58;;;;;;;32.87;37.10;99347.97;1753516;80;21046;-68
2021/06/20 09:02:56;;;;;;;13.85;3.65;;;;;;;32.92;37.30;99343.23;1756552;80;20961;-67
2021/06/20 09:05:22;;;;;;;7.20;3.33;;;;;;;32.94;36.87;99343.84;1754672;80;21474;-67
2021/06/20 09:07:49;;;;;;;6.40;2.67;;;;;;;32.91;36.84;99342.92;1757575;80;20937;-67
2021/06/20 09:10:23;;;;;;;7.72;3.30;;;;;;;32.79;36.52;99336.64;1759801;80;20944;-67
2021/06/20 09:13:00;;;;;;;7.83;3.02;;;;;;;32.66;36.59;99338.98;1761873;80;21026;-67
2021/06/20 09:15:35;;;;;;;8.98;2.98;;;;;;;32.51;35.93;99339.34;1767545;78;21546;-67
2021/06/20 09:18:04;;;;;;;;;;;;;;;32.38;36.38;99336.24;1744123;80;20961;-67
2021/06/20 09:20:38;;;;;;;4.62;2.67;;;;;;;32.46;36.08;99337.83;1761683;80;20476;-67
2021/06/20 09:23:13;;;;;;;6.30;3.15;;;;;;;32.42;36.07;99337.44;1762600;80;21529;-68
2021/06/20 09:25:42;;;;;;;3.87;2.70;;;;;;;32.48;36.11;99330.34;1748114;80;21045;-68
2021/06/20 09:28:11;;;;;;;9.23;3.22;;;;;;;32.54;35.87;99320.80;1754299;80;20861;-67
2021/06/20 09:30:51;;;;;;;3.83;2.85;;;;;;;32.49;35.92;99326.57;1752779;80;20878;-68
2021/06/20 09:33:20;;;;;;;4.55;2.83;;;;;;;32.51;35.96;99324.48;1757885;80;21496;-67
2021/06/20 09:35:55;;;;;;;7.75;2.70;;;;;;;32.43;35.96;99324.74;1754640;80;20960;-67
2021/06/20 09:38:30;;;;;;;4.95;2.90;;;;;;;32.34;35.60;99324.22;1753575;80;21104;-67
2021/06/20 09:41:12;;;;;;;6.05;2.95;;;;;;;32.17;35.58;99312.34;1783551;78;21395;-68
2021/06/20 09:43:52;;;;;;;3.58;2.70;;;;;;;32.17;35.89;99307.77;1751829;80;21472;-67
2021/06/20 09:46:19;;;;;;;8.78;3.17;;;;;;;32.31;35.85;99303.88;1735613;80;20989;-67
2021/06/20 09:48:47;;;;;;;24.00;3.62;;;;;;;32.32;35.88;99305.55;1764434;79;20984;-69
2021/06/20 09:51:22;;;;;;;9.15;3.10;;;;;;;32.31;34.92;99293.06;1761402;79;21875;-68
2021/06/20 09:53:50;;;;;;;9.80;3.35;;;;;;;32.16;35.29;99288.57;1761258;79;20921;-68
2021/06/20 09:56:30;;;;;;;12.00;3.12;;;;;;;32.10;35.08;99293.52;1766559;79;20873;-68
2021/06/20 09:59:03;;;;;;;29.85;3.60;;;;;;;31.92;35.06;99290.77;1768336;79;20857;-68
2021/06/20 10:01:38;;;;;;;9.25;3.10;;;;;;;31.84;35.23;99287.27;1764517;79;20955;-68
2021/06/20 10:04:04;;;;;;;11.35;3.77;;;;;;;31.85;35.23;99282.72;1766650;79;21138;-68
2021/06/20 10:06:31;;;;;;;9.25;3.62;;;;;;;31.87;35.37;99284.16;1764745;79;20928;-68
2021/06/20 10:08:58;;;;;;;8.80;3.20;;;;;;;31.92;35.56;99285.37;1770705;79;20896;-67
2021/06/20 10:11:25;;;;;;;5.37;2.80;;;;;;;31.99;35.63;99268.60;1762893;79;20989;-66
2021/06/20 10:13:52;;;;;;;36.75;5.22;;;;;;;32.12;35.84;99271.14;1770643;79;20909;-68
2021/06/20 10:16:26;;;;;;;21.87;4.33;;;;;;;31.96;35.78;99264.97;1756081;79;21891;-67
2021/06/20 10:19:12;;;;;;;20.48;4.55;;;;;;;31.73;35.82;99270.44;1747800;80;20885;-67
2021/06/20 10:21:46;;;;;;;34.43;5.67;;;;;;;31.50;36.13;99260.80;1759951;80;20893;-67
2021/06/20 10:24:19;;;;;;;21.30;3.90;;;;;;;31.22;36.28;99259.30;1731334;81;20914;-66
2021/06/20 10:26:59;;;;;;;20.62;3.85;;;;;;;31.25;36.62;99252.12;1728687;81;20942;-67
2021/06/20 10:29:33;;;;;;;7.35;2.92;;;;;;;31.24;36.40;99253.70;1734022;80;21091;-67
2021/06/20 10:32:13;;;;;;;10.40;2.95;;;;;;;31.29;36.57;99253.87;1731156;81;21491;-66
2021/06/20 10:34:45;;;;;;;8.28;3.50;;;;;;;31.37;36.60;99257.16;1723969;81;20998;-66
2021/06/20 10:37:17;;;;;;;5.28;2.72;;;;;;;31.38;36.43;99260.16;1727497;81;20961;-66
2021/06/20 10:39:53;;;;;;;10.08;3.10;;;;;;;31.43;36.46;99258.98;1762088;80;20952;-66
2021/06/20 10:42:38;;;;;;;8.83;2.85;;;;;;;31.44;36.51;99255.22;1728269;81;21421;-66
2021/06/20 10:45:10;;;;;;;12.85;3.47;;;;;;;31.50;36.51;99258.09;1737718;80;21072;-66
2021/06/20 10:47:41;;;;;;;9.15;3.12;;;;;;;31.42;36.01;99261.38;1739797;81;20925;-66
2021/06/20 10:50:12;;;;;;;32.53;3.37;;;;;;;31.32;36.25;99262.35;1738721;81;20980;-68
2021/06/20 10:52:41;;;;;;;7.50;3.22;;;;;;;31.36;35.71;99252.80;1735185;81;21008;-67
2021/06/20 10:55:17;;;;;;;7.90;2.60;;;;;;;31.12;35.89;99250.88;1734451;81;21507;-66
2021/06/20 10:57:51;;;;;;;;;;;;;;;31.16;36.21;99249.39;1740329;81;22015;-67
2021/06/20 11:00:33;;;;;;;10.68;2.75;;;;;;;31.32;36.03;99254.26;1771666;79;20112;-68
2021/06/20 11:03:26;;;;;;;4.65;2.50;;;;;;;31.23;35.41;99247.48;1775696;79;20883;-67
2021/06/20 11:05:56;;;;;;;4.90;2.00;;;;;;;31.12;35.82;99258.45;1773904;80;20934;-67
2021/06/20 11:08:33;;;;;;;11.80;2.33;;;;;;;31.29;35.34;99246.61;1776855;79;21013;-67
2021/06/20 11:11:16;;;;;;;39.90;3.50;;;;;;;31.15;34.92;99252.61;1776002;80;20904;-67
2021/06/20 11:13:56;;;;;;;13.32;2.45;;;;;;;31.00;34.09;99253.42;1775870;79;20910;-67
2021/06/20 11:16:36;;;;;;;22.15;2.95;;;;;;;30.89;34.40;99253.61;1771009;79;20895;-67
2021/06/20 11:19:27;;;;;;;21.45;3.62;;;;;;;30.90;34.42;99257.95;1767217;80;20902;-66
2021/06/20 11:22:06;;;;;;;7.85;2.15;;;;;;;30.96;34.49;99258.42;1763351;79;21813;-66
2021/06/20 11:24:47;;;;;;;11.38;2.40;;;;;;;31.06;33.80;99250.38;1766342;80;21419;-66
2021/06/20 11:27:17;;;;;;;4.67;2.33;;;;;;;31.09;34.26;99262.92;1770749;79;20940;-66
2021/06/20 11:29:53;;;;;;;7.58;2.05;;;;;;;31.19;34.15;99254.34;1766732;80;21385;-67
2021/06/20 11:32:26;;;;;;;2.83;1.90;;;;;;;31.24;34.34;99248.30;1762658;79;20910;-66
2021/06/20 11:35:04;;;;;;;10.75;2.47;;;;;;;31.26;34.38;99241.66;1768607;80;21960;-66
2021/06/20 11:37:49;;;;;;;7.42;2.35;;;;;;;31.32;34.53;99242.12;1760728;79;20947;-67
2021/06/20 11:40:23;;;;;;;2.75;2.05;;;;;;;31.43;34.55;99237.39;1768103;80;21531;-67